Disclaimer

Please do not use the information listed here in-flight or in-navigation, as they are not provided to us by the airports but are provided by volunteers, so they might be outdated.

Search


Regions


Airport information page

Radio informations:
Tower (TWR) - 121.8 MHz
INFO - 132.55 MHz

Latitude: N/A
Longitude: N/A
Elevation: N/A
Operating hours: N/A
Operating agency: N/A
Timezone: N/A
Fuel: N/A

Recent METARs:
LLET 211650Z 02011KT CAVOK 23/11 Q1015
LLET 211650Z 02011KT CAVOK 23/11 Q1015
LLET 211750Z 02006KT CAVOK 23/11 Q1016

Airport on the map: